Saturday, December 15, 2018, 10:32 PM EST
Back to Local

KBOS, Boston Logan International

Location: Boston, MA, United States Lat: 42.367
Local Time: 10:32 PM EST ( 3:32 GMT) Lon: -71.017
Time Zone: US/Eastern Elev: 19 ft

Show me the last for .
Show Decoded

2018-12-15 21:54 METAR KBOS 160254Z 02007KT 10SM BKN230 05/M01 A3025 RMK A02 SLP244 T00501006
                 51023 $ =
2018-12-15 20:54 METAR KBOS 160154Z 03006KT 10SM BKN220 06/01 A3025 RMK A02 SLP244 T00560006 $ =
2018-12-15 19:54 METAR KBOS 160054Z 03007KT 10SM FEW180 OVC210 07/00 A3024 RMK A02 SLP238
                 T00720000 =
2018-12-15 18:54 METAR KBOS 152354Z 03010KT 10SM FEW180 OVC220 07/02 A3019 RMK AO2 SLP221
                 T00720017 10128 20072 50010 =
2018-12-15 17:54 METAR KBOS 152254Z 06011KT 10SM OVC210 08/03 A3020 RMK A02 SLP225 T00780028 =
2018-12-15 16:54 METAR KBOS 152154Z 03007KT 10SM OVC210 09/02 A3018 RMK AO2 SLP218 T00940022 =
2018-12-15 15:54 METAR KBOS 152054Z 01009KT 10SM OVC200 11/02 A3016 RMK AO2 SLP211 T01060022
                 53006 =
2018-12-15 14:54 METAR KBOS 151954Z 36005KT 10SM FEW060 BKN200 OVC250 12/03 A3014 RMK AO2 SLP206
                 T01170033 =
2018-12-15 13:54 METAR KBOS 151854Z VRB03KT 10SM FEW060 SCT080 OVC200 13/06 A3013 RMK AO2 SLP203
                 T01280056 =
2018-12-15 11:54 METAR KBOS 151654Z 28006KT 10SM FEW060 SCT080 BKN250 12/07 A3014 RMK AO2 SLP206
                 T01170067 =
2018-12-15 09:54 METAR KBOS 151454Z 23008KT 10SM FEW025 SCT060 BKN080 11/08 A3019 RMK AO2 SLP223
                 T01060078 51008 =
2018-12-15 08:54 METAR KBOS 151354Z 24007KT 10SM FEW026 OVC055 10/08 A3019 RMK AO2 SLP223
                 T01000078 =
2018-12-15 05:54 METAR KBOS 151054Z 22011KT 7SM FEW020 OVC039 09/07 A3016 RMK AO2 SLP212
                 T00940067 =
2018-12-15 04:54 METAR KBOS 150954Z 23009KT 10SM OVC041 09/06 A3015 RMK AO2 SLP209 T00940061 =
2018-12-15 03:54 METAR KBOS 150854Z 23009KT 10SM OVC044 09/07 A3016 RMK AO2 SLP214 T00890067
                 58010 =
2018-12-15 02:54 METAR KBOS 150754Z 22009KT 10SM BKN050 09/07 A3018 RMK AO2 SLP218 T00890067 =
2018-12-15 02:12 METAR KBOS 150712Z 22010KT 10SM FEW009 BKN070 09/07 A3018 RMK AO2 T00890067 =
2018-12-15 01:54 METAR KBOS 150654Z 22013KT 10SM SCT010 OVC065 09/07 A3018 RMK AO2 SLP220
                 T00890067 =
2018-12-15 01:40 METAR KBOS 150640Z 21013KT 10SM SCT008 SCT012 OVC065 09/07 A3018 RMK AO2
                 T00890067 =
2018-12-15 00:54 METAR KBOS 150554Z 21012KT 8SM BKN008 OVC070 08/06 A3020 RMK AO2 SLP224
                 T00830061 10083 20050 56018 =
2018-12-15 00:50 METAR KBOS 150550Z 21012KT 8SM BKN009 BKN070 OVC090 08/06 A3020 RMK AO2 =
2018-12-15 00:25 METAR KBOS 150525Z 21012KT 7SM SCT005 BKN065 OVC085 08/06 A3020 RMK AO2 CIG 049
                 E T00780061 =
2018-12-14 23:54 METAR KBOS 150454Z 21011KT 6SM BR OVC006 07/06 A3021 RMK AO2 SLP228 T00720056
                 400781017 =
2018-12-14 22:54 METAR KBOS 150354Z 22010KT 8SM OVC007 07/06 A3025 RMK AO2 SLP242 T00720056 =

Support USWX by starting your Amazon purchase here.